createdAt,value
2023-01-19T00:00:52.514Z,99009.17
2023-01-19T00:03:16.222Z,99015.79
2023-01-19T00:05:28.907Z,99020.39
2023-01-19T00:07:41.920Z,99032.29
2023-01-19T00:09:54.537Z,99036.30
2023-01-19T00:12:07.286Z,99036.77
2023-01-19T00:14:19.838Z,99043.94
2023-01-19T00:16:32.436Z,99052.15
2023-01-19T00:18:46.020Z,99054.44
2023-01-19T00:20:58.536Z,99051.27
2023-01-19T00:23:11.051Z,99054.24
2023-01-19T00:25:23.610Z,99052.45
2023-01-19T00:27:36.134Z,99060.11
2023-01-19T00:29:48.729Z,99065.51
2023-01-19T00:32:02.771Z,99074.14
2023-01-19T00:34:15.499Z,99082.37
2023-01-19T00:36:28.296Z,99085.25
2023-01-19T00:38:40.914Z,99095.61
2023-01-19T00:40:53.487Z,99094.48
2023-01-19T00:43:06.022Z,99092.42
2023-01-19T00:45:21.705Z,99095.48
2023-01-19T00:47:34.239Z,99094.98
2023-01-19T00:49:46.749Z,99093.55
2023-01-19T00:51:59.441Z,99093.54
2023-01-19T00:54:11.958Z,99098.21
2023-01-19T00:56:24.941Z,99103.64
2023-01-19T00:58:37.515Z,99110.36
2023-01-19T01:00:50.085Z,99113.48
2023-01-19T01:03:03.161Z,99115.36
2023-01-19T01:05:16.390Z,99118.45
2023-01-19T01:07:30.133Z,99122.27
2023-01-19T01:09:42.654Z,99129.94
2023-01-19T01:11:55.251Z,99135.19
2023-01-19T01:14:08.509Z,99140.94
2023-01-19T01:16:22.871Z,99145.52
2023-01-19T01:18:35.552Z,99145.11
2023-01-19T01:20:48.788Z,99146.59
2023-01-19T01:23:01.784Z,99145.97
2023-01-19T01:25:16.089Z,99148.02
2023-01-19T01:27:28.619Z,99145.20
2023-01-19T01:29:46.420Z,99149.42
2023-01-19T01:31:58.993Z,99152.23
2023-01-19T01:34:11.548Z,99153.94
2023-01-19T01:36:24.138Z,99160.79
2023-01-19T01:38:36.630Z,99161.15
2023-01-19T01:40:49.551Z,99165.98
2023-01-19T01:43:02.816Z,99168.20
2023-01-19T01:45:33.539Z,99168.27
2023-01-19T01:47:49.885Z,99162.75
2023-01-19T01:50:08.296Z,99163.52
2023-01-19T01:52:22.900Z,99161.27
2023-01-19T01:54:35.647Z,99159.71
2023-01-19T01:56:52.179Z,99163.29
2023-01-19T01:59:08.728Z,99167.19
2023-01-19T02:01:40.538Z,99174.05
2023-01-19T02:03:56.142Z,99176.10
2023-01-19T02:06:10.094Z,99182.36
2023-01-19T02:08:49.853Z,99180.20
2023-01-19T02:11:21.403Z,99179.89
2023-01-19T02:13:39.850Z,99179.27
2023-01-19T02:15:58.463Z,99176.98
2023-01-19T02:18:11.275Z,99171.15
2023-01-19T02:20:27.991Z,99174.45
2023-01-19T02:22:48.882Z,99177.90
2023-01-19T02:25:04.815Z,99177.70
2023-01-19T02:27:18.039Z,99181.09
2023-01-19T02:29:31.235Z,99184.27
2023-01-19T02:31:45.523Z,99189.00
2023-01-19T02:33:59.814Z,99191.84
2023-01-19T02:36:15.148Z,99189.96
2023-01-19T02:38:28.685Z,99192.09
2023-01-19T02:40:43.590Z,99190.44
2023-01-19T02:43:00.850Z,99185.84
2023-01-19T02:45:15.404Z,99188.52
2023-01-19T02:47:38.884Z,99190.61
2023-01-19T02:49:57.081Z,99190.88
2023-01-19T02:52:17.552Z,99192.55
2023-01-19T02:54:48.110Z,99193.45
2023-01-19T02:57:19.130Z,99194.80
2023-01-19T02:59:43.883Z,99192.25
2023-01-19T03:02:19.374Z,99194.18
2023-01-19T03:04:49.349Z,99189.89
2023-01-19T03:07:14.224Z,99184.23
2023-01-19T03:09:43.784Z,99180.88
2023-01-19T03:12:05.844Z,99184.00
2023-01-19T03:14:23.542Z,99184.73
2023-01-19T03:16:48.510Z,99187.63
2023-01-19T03:19:17.486Z,99192.35
2023-01-19T03:21:34.006Z,99193.20
2023-01-19T03:23:49.560Z,99187.01
2023-01-19T03:26:05.215Z,99185.80
2023-01-19T03:28:22.765Z,99183.69
2023-01-19T03:30:42.036Z,99183.14
2023-01-19T03:33:00.448Z,99182.76
2023-01-19T03:35:16.619Z,99188.52
2023-01-19T03:37:33.545Z,99192.98
2023-01-19T03:39:46.175Z,99195.25
2023-01-19T03:42:03.057Z,99195.34
2023-01-19T03:44:16.830Z,99191.80
2023-01-19T03:46:31.619Z,99190.27
2023-01-19T03:48:46.029Z,99188.98
2023-01-19T03:51:02.423Z,99191.64
2023-01-19T03:53:17.053Z,99192.48
2023-01-19T03:55:29.852Z,99190.42
2023-01-19T03:57:42.423Z,99192.45
2023-01-19T03:59:55.817Z,99190.98
2023-01-19T04:02:08.449Z,99199.54
2023-01-19T04:04:21.151Z,99197.45
2023-01-19T04:06:33.739Z,99197.38
2023-01-19T04:08:49.085Z,99197.38
2023-01-19T04:11:01.771Z,99200.63
2023-01-19T04:13:14.334Z,99199.79
2023-01-19T04:15:27.878Z,99205.33
2023-01-19T04:17:41.811Z,99206.91
2023-01-19T04:19:54.362Z,99209.34
2023-01-19T04:22:06.909Z,99215.05
2023-01-19T04:24:19.540Z,99219.98
2023-01-19T04:26:33.115Z,99225.23
2023-01-19T04:28:46.001Z,99228.52
2023-01-19T04:30:58.634Z,99225.40
2023-01-19T04:33:11.166Z,99224.86
2023-01-19T04:35:23.779Z,99225.55
2023-01-19T04:37:36.264Z,99221.85
2023-01-19T04:39:48.792Z,99224.95
2023-01-19T04:42:01.616Z,99229.54
2023-01-19T04:44:14.565Z,99233.73
2023-01-19T04:46:27.114Z,99239.02
2023-01-19T04:48:41.311Z,99246.89
2023-01-19T04:50:54.732Z,99250.69
2023-01-19T04:53:07.754Z,99254.10
2023-01-19T04:55:20.274Z,99255.52
2023-01-19T04:57:32.852Z,99267.59
2023-01-19T04:59:45.394Z,99277.33
2023-01-19T05:01:57.966Z,99287.20
2023-01-19T05:04:10.542Z,99291.97
2023-01-19T05:06:23.110Z,99297.58
2023-01-19T05:08:35.751Z,99300.48
2023-01-19T05:10:48.411Z,99298.97
2023-01-19T05:13:01.315Z,99309.11
2023-01-19T05:15:14.046Z,99314.64
2023-01-19T05:17:26.561Z,99320.77
2023-01-19T05:19:39.189Z,99328.46
2023-01-19T05:21:51.841Z,99335.41
2023-01-19T05:24:04.475Z,99338.23
2023-01-19T05:26:17.055Z,99332.92
2023-01-19T05:28:31.257Z,99328.44
2023-01-19T05:30:43.892Z,99320.43
2023-01-19T05:32:56.440Z,99317.44
2023-01-19T05:35:09.553Z,99315.92
2023-01-19T05:37:22.099Z,99317.64
2023-01-19T05:39:34.681Z,99312.17
2023-01-19T05:41:47.715Z,99312.35
2023-01-19T05:44:00.501Z,99308.09
2023-01-19T05:46:13.394Z,99310.88
2023-01-19T05:48:26.021Z,99311.39
2023-01-19T05:50:38.548Z,99313.02
2023-01-19T05:52:53.277Z,99317.89
2023-01-19T05:55:06.326Z,99321.52
2023-01-19T05:57:18.989Z,99322.38
2023-01-19T05:59:31.590Z,99319.13
2023-01-19T06:01:44.195Z,99316.66
2023-01-19T06:03:56.763Z,99315.29
2023-01-19T06:06:09.387Z,99324.56
2023-01-19T06:08:21.894Z,99336.52
2023-01-19T06:10:34.706Z,99350.66
2023-01-19T06:12:47.303Z,99358.98
2023-01-19T06:14:59.928Z,99367.95
2023-01-19T06:17:12.653Z,99372.22
2023-01-19T06:19:25.310Z,99373.41
2023-01-19T06:21:38.236Z,99381.79
2023-01-19T06:23:50.848Z,99384.50
2023-01-19T06:26:03.726Z,99388.99
2023-01-19T06:28:16.295Z,99380.02
2023-01-19T06:30:29.067Z,99384.14
2023-01-19T06:32:41.656Z,99380.70
2023-01-19T06:34:54.290Z,99381.55
2023-01-19T06:37:06.936Z,99390.89
2023-01-19T06:39:19.504Z,99396.14
2023-01-19T06:41:33.401Z,99395.21
2023-01-19T06:43:45.963Z,99393.48
2023-01-19T06:46:00.352Z,99393.66
2023-01-19T06:48:13.203Z,99402.29
2023-01-19T06:50:26.030Z,99407.27
2023-01-19T06:52:42.334Z,99407.80
2023-01-19T06:54:55.505Z,99410.19
2023-01-19T06:57:11.763Z,99407.80
2023-01-19T06:59:25.529Z,99405.89
2023-01-19T07:01:38.306Z,99409.72
2023-01-19T07:03:50.964Z,99416.56
2023-01-19T07:06:06.438Z,99420.80
2023-01-19T07:08:19.006Z,99420.58
2023-01-19T07:11:26.575Z,99424.85
2023-01-19T07:13:04.686Z,99427.64
2023-01-19T07:15:22.572Z,99424.70
2023-01-19T07:17:35.100Z,99420.22
2023-01-19T07:19:47.802Z,99418.84
2023-01-19T07:22:00.601Z,99415.55
2023-01-19T07:24:13.113Z,99415.98
2023-01-19T07:26:27.992Z,99410.35
2023-01-19T07:28:41.641Z,99414.98
2023-01-19T07:30:55.442Z,99418.74
2023-01-19T07:33:08.437Z,99416.92
2023-01-19T07:35:21.941Z,99417.91
2023-01-19T07:37:34.500Z,99421.48
2023-01-19T07:39:47.088Z,99429.33
2023-01-19T07:41:59.729Z,99428.49
2023-01-19T07:44:12.229Z,99430.04
2023-01-19T07:46:24.823Z,99428.15
2023-01-19T07:48:37.493Z,99431.63
2023-01-19T07:50:50.013Z,99432.70
2023-01-19T07:53:07.270Z,99429.79
2023-01-19T07:55:20.754Z,99424.63
2023-01-19T07:57:33.294Z,99424.62
2023-01-19T07:59:45.874Z,99412.07
2023-01-19T08:01:59.551Z,99411.67
2023-01-19T08:04:12.355Z,99415.09
2023-01-19T08:06:32.646Z,99417.42
2023-01-19T08:08:45.188Z,99420.59
2023-01-19T08:10:57.806Z,99423.00
2023-01-19T08:13:10.335Z,99423.02
2023-01-19T08:15:24.610Z,99425.14
2023-01-19T08:17:37.192Z,99431.84
2023-01-19T08:19:49.737Z,99437.00
2023-01-19T08:22:02.349Z,99444.88
2023-01-19T08:24:21.360Z,99451.39
2023-01-19T08:26:35.736Z,99452.10
2023-01-19T08:28:48.341Z,99453.98
2023-01-19T08:31:11.153Z,99455.52
2023-01-19T08:33:31.033Z,99456.98
2023-01-19T08:35:49.005Z,99465.91
2023-01-19T08:38:01.675Z,99470.75
2023-01-19T08:40:14.483Z,99474.67
2023-01-19T08:42:27.274Z,99478.66
2023-01-19T08:44:49.741Z,99475.70
2023-01-19T08:47:09.563Z,99475.79
2023-01-19T08:49:22.220Z,99476.89
2023-01-19T08:51:34.905Z,99472.52
2023-01-19T08:53:47.928Z,99474.59
2023-01-19T08:56:03.163Z,99477.89
2023-01-19T08:58:17.389Z,99474.18
2023-01-19T09:00:34.350Z,99472.66
2023-01-19T09:02:47.327Z,99471.86
2023-01-19T09:05:00.152Z,99472.00
2023-01-19T09:07:12.812Z,99477.21
2023-01-19T09:09:25.339Z,99482.41
2023-01-19T09:11:38.019Z,99496.48
2023-01-19T09:13:50.785Z,99508.39
2023-01-19T09:16:04.237Z,99508.26
2023-01-19T09:18:19.283Z,99512.39
2023-01-19T09:20:33.762Z,99516.52
2023-01-19T09:22:47.544Z,99514.96
2023-01-19T09:25:00.347Z,99514.93
2023-01-19T09:27:13.323Z,99516.17
2023-01-19T09:29:25.947Z,99517.73
2023-01-19T09:31:40.193Z,99518.65
2023-01-19T09:33:52.809Z,99520.96
2023-01-19T09:36:05.777Z,99518.15
2023-01-19T09:38:19.963Z,99512.55
2023-01-19T09:40:32.727Z,99511.16
2023-01-19T09:42:52.595Z,99507.86
2023-01-19T09:45:12.182Z,99511.79
2023-01-19T09:47:28.310Z,99516.16
2023-01-19T09:49:55.091Z,99510.66
2023-01-19T09:52:11.217Z,99505.17
2023-01-19T09:54:52.942Z,99497.96
2023-01-19T09:57:11.035Z,99492.83
2023-01-19T09:59:29.879Z,99488.44
2023-01-19T10:02:00.206Z,99485.21
2023-01-19T10:04:18.605Z,99481.20
2023-01-19T10:06:31.648Z,99481.20
2023-01-19T10:09:00.881Z,99479.25
2023-01-19T10:11:34.516Z,99475.98
2023-01-19T10:13:55.864Z,99474.41
2023-01-19T10:16:34.861Z,99473.53
2023-01-19T10:18:51.625Z,99468.87
2023-01-19T10:21:13.090Z,99465.82
2023-01-19T10:23:44.052Z,99462.84
2023-01-19T10:26:00.413Z,99465.60
2023-01-19T10:28:14.974Z,99466.45
2023-01-19T10:30:30.125Z,99470.98
2023-01-19T10:32:44.457Z,99468.20
2023-01-19T10:34:59.501Z,99465.71
2023-01-19T10:37:37.900Z,99462.95
2023-01-19T10:39:57.126Z,99462.65
2023-01-19T10:42:15.148Z,99469.53
2023-01-19T10:44:33.964Z,99469.54
2023-01-19T10:46:49.015Z,99475.34
2023-01-19T10:49:02.211Z,99473.96
2023-01-19T10:51:15.152Z,99474.92
2023-01-19T10:53:30.582Z,99478.27
2023-01-19T10:55:44.070Z,99480.09
2023-01-19T10:57:57.832Z,99485.84
2023-01-19T11:00:39.345Z,99486.92
2023-01-19T11:02:52.064Z,99481.17
2023-01-19T11:05:24.124Z,99484.40
2023-01-19T11:07:36.782Z,99487.28
2023-01-19T11:09:50.539Z,99483.11
2023-01-19T11:12:03.298Z,99480.58
2023-01-19T11:14:20.930Z,99482.15
2023-01-19T11:16:35.187Z,99480.15
2023-01-19T11:18:52.441Z,99476.81
2023-01-19T11:21:12.200Z,99474.34
2023-01-19T11:23:28.445Z,99474.35
2023-01-19T11:25:46.332Z,99471.05
2023-01-19T11:27:59.638Z,99472.39
2023-01-19T11:30:22.248Z,99470.24
2023-01-19T11:32:36.999Z,99469.30
2023-01-19T11:34:50.467Z,99471.48
2023-01-19T11:37:18.409Z,99467.68
2023-01-19T11:39:46.612Z,99467.08
2023-01-19T11:42:02.565Z,99459.58
2023-01-19T11:44:23.769Z,99459.50
2023-01-19T11:46:39.649Z,99461.83
2023-01-19T11:49:19.890Z,99460.52
2023-01-19T11:51:43.521Z,99460.38
2023-01-19T11:53:56.220Z,99460.31
2023-01-19T11:56:14.948Z,99456.94
2023-01-19T11:58:27.781Z,99455.21
2023-01-19T12:00:46.268Z,99453.84
2023-01-19T12:03:16.006Z,99453.45
2023-01-19T12:05:33.228Z,99449.50
2023-01-19T12:07:48.997Z,99447.46
2023-01-19T12:10:20.760Z,99448.63
2023-01-19T12:12:36.594Z,99448.53
2023-01-19T12:14:59.490Z,99443.25
2023-01-19T12:17:20.036Z,99439.45
2023-01-19T12:19:46.183Z,99431.83
2023-01-19T12:21:59.578Z,99428.04
2023-01-19T12:24:40.470Z,99424.70
2023-01-19T12:26:56.208Z,99422.20
2023-01-19T12:29:14.057Z,99421.08
2023-01-19T12:31:27.722Z,99423.51
2023-01-19T12:33:40.606Z,99420.55
2023-01-19T12:35:55.545Z,99420.02
2023-01-19T12:38:43.555Z,99419.75
2023-01-19T12:41:34.506Z,99422.13
2023-01-19T12:43:48.519Z,99421.66
2023-01-19T12:46:02.055Z,99423.95
2023-01-19T12:48:25.275Z,99423.59
2023-01-19T12:50:38.562Z,99425.41
2023-01-19T12:53:02.072Z,99421.90
2023-01-19T12:55:14.651Z,99419.30
2023-01-19T12:57:30.376Z,99418.87
2023-01-19T12:59:43.302Z,99421.42
2023-01-19T13:02:20.887Z,99420.44
2023-01-19T13:04:33.988Z,99421.24
2023-01-19T13:06:49.568Z,99422.07
2023-01-19T13:09:02.431Z,99423.91
2023-01-19T13:11:18.030Z,99430.20
2023-01-19T13:13:50.142Z,99431.88
2023-01-19T13:16:18.065Z,99433.68
2023-01-19T13:18:35.355Z,99435.06
2023-01-19T13:20:56.191Z,99438.17
2023-01-19T13:23:27.585Z,99440.63
2023-01-19T13:25:41.308Z,99444.70
2023-01-19T13:27:54.596Z,99442.47
2023-01-19T13:30:12.656Z,99447.25
2023-01-19T13:32:25.681Z,99446.34
2023-01-19T13:34:49.015Z,99443.93
2023-01-19T13:37:02.034Z,99450.66
2023-01-19T13:39:19.987Z,99451.56
2023-01-19T13:41:40.211Z,99453.71
2023-01-19T13:44:01.369Z,99451.71
2023-01-19T13:46:17.346Z,99451.34
2023-01-19T13:48:31.501Z,99451.21
2023-01-19T13:50:56.901Z,99449.28
2023-01-19T13:53:20.684Z,99450.54
2023-01-19T13:55:33.506Z,99451.45
2023-01-19T13:57:48.168Z,99456.80
2023-01-19T14:00:17.193Z,99455.86
2023-01-19T14:02:29.968Z,99461.64
2023-01-19T14:04:42.794Z,99461.33
2023-01-19T14:06:58.697Z,99456.61
2023-01-19T14:09:17.893Z,99459.76
2023-01-19T14:11:30.482Z,99463.20
2023-01-19T14:13:44.863Z,99460.92
2023-01-19T14:16:00.927Z,99465.91
2023-01-19T14:18:16.606Z,99472.91
2023-01-19T14:20:30.565Z,99472.73
2023-01-19T14:22:45.862Z,99472.53
2023-01-19T14:25:26.119Z,99475.77
2023-01-19T14:27:39.155Z,99473.66
2023-01-19T14:29:54.736Z,99475.59
2023-01-19T14:32:17.282Z,99478.15
2023-01-19T14:34:48.202Z,99479.46
2023-01-19T14:37:03.057Z,99474.04
2023-01-19T14:39:23.313Z,99476.71
2023-01-19T14:41:44.439Z,99479.08
2023-01-19T14:43:58.947Z,99479.40
2023-01-19T14:46:19.188Z,99480.38
2023-01-19T14:48:32.133Z,99482.61
2023-01-19T14:51:01.335Z,99482.89
2023-01-19T14:53:18.742Z,99482.83
2023-01-19T14:55:56.693Z,99488.16
2023-01-19T14:58:14.161Z,99495.35
2023-01-19T15:00:27.140Z,99498.16
2023-01-19T15:02:39.792Z,99499.55
2023-01-19T15:04:55.293Z,99506.50
2023-01-19T15:07:17.056Z,99504.27
2023-01-19T15:09:29.777Z,99509.30
2023-01-19T15:11:43.476Z,99515.37
2023-01-19T15:13:56.120Z,99519.31
2023-01-19T15:16:11.659Z,99527.09
2023-01-19T15:18:26.875Z,99526.83
2023-01-19T15:20:40.597Z,99524.52
2023-01-19T15:22:53.185Z,99524.48
2023-01-19T15:25:06.624Z,99527.05
2023-01-19T15:27:21.681Z,99531.30
2023-01-19T15:29:34.477Z,99534.23
2023-01-19T15:31:47.567Z,99530.85
2023-01-19T15:34:00.303Z,99533.39
2023-01-19T15:36:17.728Z,99532.02
2023-01-19T15:38:30.643Z,99535.39
2023-01-19T15:40:43.537Z,99534.52
2023-01-19T15:42:56.098Z,99538.04
2023-01-19T15:45:29.768Z,99538.32
2023-01-19T15:47:42.369Z,99548.13
2023-01-19T15:49:54.901Z,99545.50
2023-01-19T15:52:07.451Z,99548.38
2023-01-19T15:54:20.076Z,99553.45
2023-01-19T15:56:32.625Z,99555.11
2023-01-19T15:58:46.033Z,99553.84
2023-01-19T16:00:58.925Z,99558.00
2023-01-19T16:03:11.540Z,99554.45
2023-01-19T16:05:37.465Z,99553.73
2023-01-19T16:07:54.888Z,99553.55
2023-01-19T16:10:09.528Z,99554.83
2023-01-19T16:12:22.178Z,99558.48
2023-01-19T16:14:34.695Z,99556.34
2023-01-19T16:16:47.284Z,99560.16
2023-01-19T16:19:00.096Z,99560.11
2023-01-19T16:21:12.810Z,99560.31
2023-01-19T16:23:25.515Z,99563.80
2023-01-19T16:25:38.130Z,99566.77
2023-01-19T16:27:50.741Z,99568.55
2023-01-19T16:30:05.291Z,99574.70
2023-01-19T16:32:18.202Z,99577.83
2023-01-19T16:34:31.137Z,99578.19
2023-01-19T16:37:19.703Z,99578.25
2023-01-19T16:39:32.378Z,99577.66
2023-01-19T16:41:46.012Z,99573.10
2023-01-19T16:43:58.905Z,99569.08
2023-01-19T16:47:19.564Z,99571.48
2023-01-19T16:49:32.490Z,99584.00
2023-01-19T16:51:45.921Z,99587.52
2023-01-19T16:53:58.885Z,99587.77
2023-01-19T16:56:14.466Z,99586.08
2023-01-19T16:58:27.125Z,99585.59
2023-01-19T17:00:39.683Z,99586.92
2023-01-19T17:02:52.175Z,99582.15
2023-01-19T17:05:05.187Z,99580.79
2023-01-19T17:07:19.225Z,99580.52
2023-01-19T17:09:32.037Z,99584.85
2023-01-19T17:11:45.120Z,99584.91
2023-01-19T17:14:03.259Z,99584.90
2023-01-19T17:16:16.571Z,99591.34
2023-01-19T17:18:34.416Z,99588.58
2023-01-19T17:20:46.927Z,99588.73
2023-01-19T17:22:59.732Z,99590.40
2023-01-19T17:25:12.250Z,99590.21
2023-01-19T17:27:24.897Z,99592.27
2023-01-19T17:29:37.594Z,99588.89
2023-01-19T17:31:51.044Z,99589.58
2023-01-19T17:34:04.049Z,99589.94
2023-01-19T17:36:22.991Z,99590.82
2023-01-19T17:38:36.180Z,99586.95
2023-01-19T17:40:48.703Z,99588.48
2023-01-19T17:43:01.213Z,99591.25
2023-01-19T17:45:15.006Z,99595.51
2023-01-19T17:47:27.553Z,99600.79
2023-01-19T17:49:40.242Z,99600.11
2023-01-19T17:51:54.522Z,99599.79
2023-01-19T17:54:07.430Z,99603.59
2023-01-19T17:56:22.711Z,99608.53
2023-01-19T17:58:35.452Z,99616.02
2023-01-19T18:00:48.108Z,99616.88
2023-01-19T18:03:00.965Z,99617.73
2023-01-19T18:05:14.918Z,99621.48
2023-01-19T18:07:28.577Z,99625.56
2023-01-19T18:09:41.124Z,99630.69
2023-01-19T18:11:53.840Z,99634.16
2023-01-19T18:14:06.718Z,99637.98
2023-01-19T18:16:23.139Z,99637.65
2023-01-19T18:18:36.637Z,99640.90
2023-01-19T18:20:49.388Z,99642.27
2023-01-19T18:23:02.197Z,99648.91
2023-01-19T18:25:14.848Z,99647.55
2023-01-19T18:27:29.110Z,99647.20
2023-01-19T18:29:42.854Z,99646.36
2023-01-19T18:31:55.480Z,99647.06
2023-01-19T18:34:08.233Z,99645.39
2023-01-19T18:36:20.791Z,99646.92
2023-01-19T18:38:34.321Z,99648.78
2023-01-19T18:40:47.163Z,99641.34
2023-01-19T18:42:59.701Z,99644.56
2023-01-19T18:45:12.274Z,99641.36
2023-01-19T18:47:24.838Z,99637.64
2023-01-19T18:49:37.589Z,99636.80
2023-01-19T18:51:50.300Z,99639.37
2023-01-19T18:54:02.968Z,99637.19
2023-01-19T18:56:16.384Z,99638.21
2023-01-19T18:58:31.688Z,99634.48
2023-01-19T19:00:44.535Z,99635.35
2023-01-19T19:02:58.085Z,99632.30
2023-01-19T19:05:11.153Z,99639.46
2023-01-19T19:07:23.860Z,99638.11
2023-01-19T19:09:36.898Z,99638.98
2023-01-19T19:11:49.396Z,99638.96
2023-01-19T19:14:03.510Z,99640.17
2023-01-19T19:16:16.271Z,99641.02
2023-01-19T19:18:29.198Z,99641.70
2023-01-19T19:20:44.386Z,99647.33
2023-01-19T19:22:56.919Z,99647.66
2023-01-19T19:25:09.680Z,99646.98
2023-01-19T19:27:22.385Z,99647.98
2023-01-19T19:29:35.133Z,99652.59
2023-01-19T19:31:47.835Z,99656.67
2023-01-19T19:34:00.468Z,99663.13
2023-01-19T19:36:13.230Z,99668.39
2023-01-19T19:38:27.199Z,99672.82
2023-01-19T19:40:39.938Z,99676.89
2023-01-19T19:42:52.948Z,99681.81
2023-01-19T19:45:05.913Z,99685.05
2023-01-19T19:47:19.185Z,99690.16
2023-01-19T19:49:31.797Z,99695.25
2023-01-19T19:51:44.461Z,99692.70
2023-01-19T19:53:59.365Z,99696.94
2023-01-19T19:56:13.236Z,99697.96
2023-01-19T19:58:26.976Z,99703.05
2023-01-19T20:00:39.842Z,99707.14
2023-01-19T20:02:52.606Z,99711.90
2023-01-19T20:05:05.893Z,99713.09
2023-01-19T20:07:18.712Z,99719.03
2023-01-19T20:09:32.658Z,99721.76
2023-01-19T20:11:46.808Z,99726.86
2023-01-19T20:13:59.407Z,99728.39
2023-01-19T20:16:14.691Z,99728.90
2023-01-19T20:18:27.407Z,99729.23
2023-01-19T20:20:40.235Z,99733.65
2023-01-19T20:22:52.873Z,99733.48
2023-01-19T20:25:06.264Z,99735.70
2023-01-19T20:27:18.889Z,99736.53
2023-01-19T20:29:31.683Z,99739.27
2023-01-19T20:31:47.204Z,99741.63
2023-01-19T20:34:02.774Z,99746.56
2023-01-19T20:36:16.164Z,99745.03
2023-01-19T20:38:29.038Z,99753.70
2023-01-19T20:40:41.817Z,99756.41
2023-01-19T20:42:54.631Z,99757.78
2023-01-19T20:45:08.574Z,99754.39
2023-01-19T20:47:22.529Z,99753.36
2023-01-19T20:49:36.042Z,99751.67
2023-01-19T20:51:49.921Z,99748.10
2023-01-19T20:54:02.471Z,99749.80
2023-01-19T20:56:15.531Z,99747.23
2023-01-19T20:58:31.161Z,99747.41
2023-01-19T21:00:44.605Z,99750.13
2023-01-19T21:02:57.526Z,99754.03
2023-01-19T21:05:10.590Z,99755.73
2023-01-19T21:07:23.283Z,99756.59
2023-01-19T21:09:38.067Z,99760.50
2023-01-19T21:11:50.633Z,99763.74
2023-01-19T21:14:03.862Z,99770.54
2023-01-19T21:16:16.431Z,99767.63
2023-01-19T21:18:29.381Z,99769.66
2023-01-19T21:20:42.247Z,99766.92
2023-01-19T21:22:55.131Z,99765.56
2023-01-19T21:25:08.184Z,99763.71
2023-01-19T21:27:21.045Z,99760.80
2023-01-19T21:29:33.919Z,99766.08
2023-01-19T21:31:46.585Z,99768.47
2023-01-19T21:33:59.362Z,99771.02
2023-01-19T21:36:12.271Z,99772.05
2023-01-19T21:38:27.302Z,99777.64
2023-01-19T21:40:40.122Z,99776.63
2023-01-19T21:42:52.799Z,99773.89
2023-01-19T21:45:06.409Z,99774.09
2023-01-19T21:47:19.103Z,99769.66
2023-01-19T21:49:31.812Z,99767.97
2023-01-19T21:51:45.586Z,99772.55
2023-01-19T21:54:00.381Z,99772.73
2023-01-19T21:56:12.949Z,99772.39
2023-01-19T21:58:26.077Z,99777.30
2023-01-19T22:00:39.110Z,99774.77
2023-01-19T22:03:03.183Z,99776.30
2023-01-19T22:05:16.309Z,99778.50
2023-01-19T22:07:28.858Z,99773.59
2023-01-19T22:09:41.423Z,99774.77
2023-01-19T22:11:54.039Z,99774.94
2023-01-19T22:14:06.760Z,99774.27
2023-01-19T22:16:21.367Z,99775.97
2023-01-19T22:18:36.031Z,99775.96
2023-01-19T22:20:48.678Z,99774.27
2023-01-19T22:23:01.196Z,99774.28
2023-01-19T22:25:14.958Z,99775.80
2023-01-19T22:27:28.540Z,99780.89
2023-01-19T22:29:41.081Z,99780.89
2023-01-19T22:31:53.721Z,99782.10
2023-01-19T22:34:10.392Z,99783.28
2023-01-19T22:36:35.673Z,99781.07
2023-01-19T22:38:51.569Z,99787.52
2023-01-19T22:41:17.736Z,99789.39
2023-01-19T22:43:30.332Z,99796.19
2023-01-19T22:45:43.253Z,99798.73
2023-01-19T22:47:55.757Z,99804.19
2023-01-19T22:50:08.957Z,99806.23
2023-01-19T22:52:21.509Z,99807.76
2023-01-19T22:54:34.110Z,99813.88
2023-01-19T22:56:46.666Z,99812.67
2023-01-19T22:58:59.823Z,99816.42
2023-01-19T23:01:18.057Z,99822.55
2023-01-19T23:03:30.689Z,99826.80
2023-01-19T23:05:43.316Z,99826.63
2023-01-19T23:07:55.843Z,99828.00
2023-01-19T23:10:09.005Z,99828.16
2023-01-19T23:12:21.570Z,99831.05
2023-01-19T23:14:34.647Z,99829.86
2023-01-19T23:16:47.508Z,99830.88
2023-01-19T23:19:00.662Z,99831.40
2023-01-19T23:21:16.850Z,99832.77
2023-01-19T23:23:29.430Z,99830.70
2023-01-19T23:25:41.976Z,99829.17
2023-01-19T23:27:54.474Z,99833.27
2023-01-19T23:30:07.924Z,99834.97
2023-01-19T23:32:20.556Z,99835.99
2023-01-19T23:34:33.107Z,99833.95
2023-01-19T23:36:45.769Z,99829.19
2023-01-19T23:39:00.955Z,99824.77
2023-01-19T23:41:13.590Z,99826.64
2023-01-19T23:43:26.801Z,99826.98
2023-01-19T23:45:39.317Z,99829.02
2023-01-19T23:47:51.844Z,99832.09
2023-01-19T23:50:05.160Z,99837.52
2023-01-19T23:52:17.694Z,99848.05
2023-01-19T23:54:30.417Z,99846.36
2023-01-19T23:56:43.038Z,99845.51
2023-01-19T23:59:07.686Z,99850.27
